Time;durP1;ratioP1;P1;durP2;ratioP2;P2;SDS_P1;SDS_P2;PMS_P1;PMS_P2;Temp;Humidity;BMP_temperature;BMP_pressure;BME280_temperature;BME280_humidity;BME280_pressure;Samples;Min_cycle;Max_cycle;Signal;HPM_P1;HPM_P2
2022/10/25 00:00:46;;;;;;;37.05;28.55;;;;;;;13.13;88.93;100566.72;1770953;81;21260;-78
2022/10/25 00:03:52;;;;;;;35.28;26.65;;;;;;;13.12;89.24;100564.98;1770800;81;21184;-77
2022/10/25 00:07:00;;;;;;;29.85;22.60;;;;;;;13.05;89.55;100562.15;1770768;81;21236;-77
2022/10/25 00:10:06;;;;;;;30.02;21.33;;;;;;;13.02;89.58;100561.14;1770139;80;21236;-77
2022/10/25 00:13:13;;;;;;;31.33;23.60;;;;;;;12.96;90.12;100561.37;1770933;81;21185;-77
2022/10/25 00:16:24;;;;;;;36.80;26.90;;;;;;;13.09;89.99;100556.63;1770904;81;21189;-77
2022/10/25 00:19:30;;;;;;;32.95;25.02;;;;;;;13.21;89.41;100555.63;1769999;81;21185;-77
2022/10/25 00:22:39;;;;;;;33.20;25.43;;;;;;;13.18;89.35;100556.02;1769812;81;21224;-77
2022/10/25 00:25:45;;;;;;;27.93;21.02;;;;;;;13.13;89.45;100558.48;1770344;81;21224;-77
2022/10/25 00:28:51;;;;;;;27.15;18.65;;;;;;;13.15;89.32;100549.00;1772967;80;21198;-77
2022/10/25 00:31:57;;;;;;;25.12;17.65;;;;;;;13.36;88.09;100546.05;1777605;80;21191;-78
2022/10/25 00:35:03;;;;;;;31.02;24.00;;;;;;;13.37;87.47;100547.27;1779042;80;21184;-77
2022/10/25 00:38:09;;;;;;;35.08;27.87;;;;;;;13.45;86.31;100543.55;1779153;80;21181;-77
2022/10/25 00:41:15;;;;;;;37.50;27.98;;;;;;;13.26;86.31;100540.84;1778444;80;21219;-77
2022/10/25 00:44:49;;;;;;;46.13;34.55;;;;;;;13.20;86.68;100534.18;1777797;80;21298;-77
2022/10/25 00:48:09;;;;;;;57.45;38.88;;;;;;;13.11;86.61;100525.69;1780157;80;21640;-77
2022/10/25 00:51:15;;;;;;;55.63;37.15;;;;;;;12.99;86.87;100519.82;1780231;80;21732;-77
2022/10/25 00:54:23;;;;;;;57.93;42.98;;;;;;;12.90;87.15;100519.56;1780200;80;21153;-77
2022/10/25 00:57:49;;;;;;;58.83;41.83;;;;;;;12.82;87.54;100516.04;1779940;80;21219;-77
2022/10/25 01:00:56;;;;;;;68.42;47.10;;;;;;;13.08;86.67;100514.22;1779117;80;21490;-77
2022/10/25 01:04:02;;;;;;;63.55;44.70;;;;;;;13.24;85.64;100513.57;1779035;80;21181;-77
2022/10/25 01:07:02;;;;;;;68.75;46.75;;;;;;;13.08;86.12;100506.86;1779223;80;21232;-77
2022/10/25 01:10:07;;;;;;;62.67;42.78;;;;;;;12.96;86.79;100506.45;1778112;80;21251;-77
2022/10/25 01:13:14;;;;;;;59.35;40.73;;;;;;;13.05;86.53;100501.21;1777581;80;21192;-77
2022/10/25 01:16:34;;;;;;;57.60;37.15;;;;;;;13.07;86.30;100497.42;1778182;80;21200;-77
2022/10/25 01:19:50;;;;;;;56.28;36.15;;;;;;;13.07;86.43;100496.89;1778931;80;21223;-77
2022/10/25 01:23:42;;;;;;;63.15;38.65;;;;;;;13.12;86.34;100496.33;1777528;80;21224;-77
2022/10/25 01:27:05;;;;;;;56.10;38.25;;;;;;;13.02;87.12;100492.48;1777926;80;21192;-77
2022/10/25 01:30:32;;;;;;;63.58;40.80;;;;;;;13.20;86.08;100499.00;1759098;80;21267;-77
2022/10/25 01:34:00;;;;;;;62.27;41.20;;;;;;;13.18;85.71;100494.23;1746804;82;21193;-77
2022/10/25 01:37:39;;;;;;;59.93;39.67;;;;;;;13.22;85.57;100499.67;1748334;82;21759;-77
2022/10/25 01:41:06;;;;;;;56.55;38.15;;;;;;;13.21;85.71;100497.95;1748403;82;21187;-77
2022/10/25 01:44:25;;;;;;;53.40;33.85;;;;;;;13.19;86.17;100494.55;1748232;82;21200;-77
2022/10/25 01:47:50;;;;;;;46.85;30.77;;;;;;;13.23;85.72;100500.03;1748232;82;21234;-77
2022/10/25 01:50:57;;;;;;;44.08;30.00;;;;;;;13.43;85.36;100501.16;1735452;82;22509;-77
2022/10/25 01:54:03;;;;;;;34.85;23.20;;;;;;;12.86;87.52;100493.52;1747031;82;21193;-77
2022/10/25 01:57:42;;;;;;;33.88;23.70;;;;;;;12.81;87.67;100494.61;1747904;82;21215;-77
2022/10/25 02:01:05;;;;;;;24.40;18.32;;;;;;;12.83;87.60;100488.92;1747185;81;21244;-77
2022/10/25 02:04:19;;;;;;;29.75;20.27;;;;;;;12.99;86.37;100497.00;1745947;82;21225;-77
2022/10/25 02:07:42;;;;;;;30.62;19.25;;;;;;;13.01;86.19;100493.02;1748295;82;21188;-77
2022/10/25 02:11:00;;;;;;;32.93;19.52;;;;;;;12.96;86.10;100491.35;1747147;82;21272;-77
2022/10/25 02:14:38;;;;;;;27.98;19.85;;;;;;;12.79;86.34;100497.52;1747307;82;21743;-77
2022/10/25 02:17:53;;;;;;;28.47;18.32;;;;;;;12.76;86.45;100499.80;1748305;82;21296;-77
2022/10/25 02:20:53;;;;;;;29.35;18.73;;;;;;;12.73;86.73;100493.30;1748298;82;21775;-77
2022/10/25 02:23:59;;;;;;;27.37;16.77;;;;;;;12.79;86.58;100498.03;1747373;82;21276;-77
2022/10/25 02:27:05;;;;;;;25.60;16.95;;;;;;;12.91;86.34;100497.92;1733677;82;21291;-77
2022/10/25 02:30:12;;;;;;;27.70;19.00;;;;;;;12.92;86.08;100498.78;1753321;81;21771;-77
2022/10/25 02:33:18;;;;;;;25.12;17.65;;;;;;;12.97;85.18;100502.66;1770436;81;21823;-77
2022/10/25 02:36:31;;;;;;;26.68;17.90;;;;;;;12.91;85.86;100491.06;1770922;81;21220;-77
2022/10/25 02:39:36;;;;;;;32.78;18.20;;;;;;;12.95;85.53;100493.77;1771077;81;21501;-77
2022/10/25 02:42:43;;;;;;;29.92;17.77;;;;;;;12.77;85.69;100489.15;1770607;80;21236;-77
2022/10/25 02:45:48;;;;;;;40.10;17.55;;;;;;;12.62;86.40;100492.39;1770922;81;21839;-77
2022/10/25 02:48:55;;;;;;;38.80;15.95;;;;;;;12.46;86.67;100494.20;1770803;81;21193;-77
2022/10/25 02:52:01;;;;;;;120.35;19.35;;;;;;;12.48;86.85;100486.66;1770796;81;21228;-77
2022/10/25 02:55:08;;;;;;;33.48;20.25;;;;;;;12.34;87.08;100492.95;1770783;81;21739;-77
2022/10/25 02:58:14;;;;;;;178.75;20.12;;;;;;;12.36;87.07;100486.75;1770463;81;21213;-77
2022/10/25 03:01:21;;;;;;;333.80;20.30;;;;;;;12.13;87.64;100486.75;1770862;81;21199;-77
2022/10/25 03:04:27;;;;;;;295.50;21.25;;;;;;;12.16;87.54;100484.17;1769973;81;21268;-77
2022/10/25 03:07:32;;;;;;;434.60;20.10;;;;;;;12.24;87.25;100488.23;1770883;81;21189;-77
2022/10/25 03:10:39;;;;;;;484.75;20.57;;;;;;;12.42;86.39;100490.16;1769564;81;21252;-77
2022/10/25 03:13:45;;;;;;;391.55;17.70;;;;;;;12.41;86.44;100484.83;1769401;81;21862;-78
2022/10/25 03:16:46;;;;;;;426.98;17.80;;;;;;;12.63;85.72;100488.59;1771103;81;21188;-77
2022/10/25 03:19:53;;;;;;;326.73;19.23;;;;;;;12.54;85.56;100489.19;1770882;81;21177;-77
2022/10/25 03:23:00;;;;;;;234.22;19.00;;;;;;;12.47;85.79;100491.83;1770977;81;21188;-77
2022/10/25 03:26:06;;;;;;;191.90;19.48;;;;;;;12.54;85.89;100487.81;1770875;81;21173;-78
2022/10/25 03:29:12;;;;;;;306.95;16.55;;;;;;;12.56;85.62;100484.87;1770037;81;21327;-77
2022/10/25 03:32:18;;;;;;;123.13;16.87;;;;;;;12.31;86.68;100493.31;1757140;80;21200;-77
2022/10/25 03:35:23;;;;;;;262.72;14.65;;;;;;;12.43;86.82;100494.59;1746827;82;21236;-77
2022/10/25 03:38:29;;;;;;;143.78;13.45;;;;;;;12.41;86.46;100495.28;1748251;82;21180;-77
2022/10/25 03:41:36;;;;;;;183.50;14.28;;;;;;;12.56;85.78;100504.92;1748283;82;21193;-78
2022/10/25 03:44:40;;;;;;;114.55;13.53;;;;;;;12.47;85.48;100505.55;1747272;82;21227;-78
2022/10/25 03:47:48;;;;;;;154.12;13.38;;;;;;;12.41;85.69;100498.02;1746783;81;21251;-77
2022/10/25 03:50:53;;;;;;;206.32;13.78;;;;;;;12.42;85.58;100494.27;1748239;82;21189;-77
2022/10/25 03:54:00;;;;;;;128.70;12.63;;;;;;;12.34;85.78;100491.58;1748224;82;21791;-77
2022/10/25 03:57:07;;;;;;;89.52;12.80;;;;;;;12.60;84.97;100495.30;1748721;82;21189;-77
2022/10/25 04:00:13;;;;;;;118.80;13.30;;;;;;;12.38;85.61;100494.30;1747030;82;21839;-78
2022/10/25 04:03:18;;;;;;;90.10;12.35;;;;;;;12.28;85.86;100484.95;1748800;82;21744;-77
2022/10/25 04:06:24;;;;;;;116.28;14.03;;;;;;;12.24;85.76;100489.61;1748314;82;21185;-77
2022/10/25 04:09:29;;;;;;;104.27;13.05;;;;;;;12.02;86.79;100492.66;1747821;82;21831;-77
2022/10/25 04:12:36;;;;;;;141.80;13.83;;;;;;;11.70;88.53;100490.93;1748197;82;21225;-77
2022/10/25 04:15:40;;;;;;;122.02;14.75;;;;;;;11.69;89.08;100490.59;1746965;82;21224;-77
2022/10/25 04:18:46;;;;;;;59.70;15.43;;;;;;;11.67;88.96;100492.16;1748259;82;21224;-77
2022/10/25 04:21:53;;;;;;;143.28;14.38;;;;;;;11.64;89.12;100494.39;1746865;81;21193;-77
2022/10/25 04:25:01;;;;;;;133.67;13.98;;;;;;;11.74;88.61;100492.28;1747594;82;21220;-77
2022/10/25 04:28:07;;;;;;;57.35;16.10;;;;;;;11.47;89.36;100487.60;1748142;82;21189;-77
2022/10/25 04:31:13;;;;;;;57.25;16.35;;;;;;;11.66;88.94;100490.95;1746800;82;21221;-77
2022/10/25 04:34:18;;;;;;;139.97;14.85;;;;;;;11.56;89.64;100491.69;1769216;81;21323;-77
2022/10/25 04:37:25;;;;;;;45.55;16.48;;;;;;;11.59;90.18;100495.45;1775062;79;21287;-77
2022/10/25 04:40:31;;;;;;;93.85;17.60;;;;;;;11.68;89.31;100502.59;1776569;81;21720;-77
2022/10/25 04:43:37;;;;;;;108.87;18.10;;;;;;;11.68;89.27;100497.97;1776489;81;21244;-78
2022/10/25 04:46:43;;;;;;;99.77;18.12;;;;;;;11.79;88.97;100492.59;1776489;81;21233;-77
2022/10/25 04:49:49;;;;;;;75.32;17.25;;;;;;;11.81;88.66;100497.39;1776491;81;21363;-78
2022/10/25 04:52:57;;;;;;;43.42;17.77;;;;;;;11.68;89.35;100497.97;1800227;79;21157;-78
2022/10/25 04:56:08;;;;;;;46.00;18.65;;;;;;;11.69;89.39;100494.71;1801399;79;21228;-77
2022/10/25 04:59:16;;;;;;;29.82;17.92;;;;;;;11.81;89.11;100501.51;1802360;79;21823;-77
2022/10/25 05:02:21;;;;;;;33.25;20.32;;;;;;;12.05;88.01;100501.91;1802537;79;21157;-77
2022/10/25 05:05:26;;;;;;;35.78;20.52;;;;;;;11.96;88.56;100508.47;1780843;79;21199;-80
2022/10/25 05:08:33;;;;;;;37.83;20.85;;;;;;;11.89;88.95;100510.21;1776386;81;21177;-80
2022/10/25 05:11:38;;;;;;;31.95;21.27;;;;;;;11.86;88.91;100507.33;1776538;80;21177;-80
2022/10/25 05:14:46;;;;;;;34.90;20.92;;;;;;;11.99;89.25;100511.69;1775155;81;21184;-80
2022/10/25 05:17:52;;;;;;;32.08;20.75;;;;;;;12.10;88.72;100515.92;1774921;81;21189;-80
2022/10/25 05:21:05;;;;;;;35.52;20.90;;;;;;;12.49;87.44;100512.20;1770871;81;21777;-80
2022/10/25 05:24:13;;;;;;;31.97;21.87;;;;;;;12.23;88.31;100519.41;1770954;81;21164;-80
2022/10/25 05:27:20;;;;;;;34.73;21.48;;;;;;;12.26;87.99;100520.43;1770823;81;21174;-80
2022/10/25 05:30:26;;;;;;;30.23;19.05;;;;;;;12.24;88.33;100529.38;1770704;81;22073;-80
2022/10/25 05:33:32;;;;;;;34.92;21.52;;;;;;;12.20;88.97;100526.66;1770839;79;21263;-80
2022/10/25 05:36:37;;;;;;;34.43;22.50;;;;;;;12.38;89.06;100531.85;1777596;80;21190;-80
2022/10/25 05:39:42;;;;;;;42.35;24.98;;;;;;;12.47;89.62;100535.72;1777484;80;21181;-78
2022/10/25 05:42:48;;;;;;;38.88;23.52;;;;;;;12.51;90.85;100532.06;1778779;80;21744;-78
2022/10/25 05:45:54;;;;;;;48.15;24.43;;;;;;;12.63;91.54;100533.35;1778698;80;21271;-78
2022/10/25 05:48:59;;;;;;;36.40;22.87;;;;;;;12.96;91.80;100532.54;1776636;80;21334;-78
2022/10/25 05:52:06;;;;;;;36.55;22.22;;;;;;;13.33;91.22;100536.31;1770449;81;21231;-78
2022/10/25 05:55:14;;;;;;;30.00;20.40;;;;;;;13.62;90.94;100530.48;1770207;81;21189;-78
2022/10/25 05:58:16;;;;;;;33.05;21.33;;;;;;;13.52;92.38;100531.62;1780093;79;21720;-78
2022/10/25 06:01:23;;;;;;;34.45;22.60;;;;;;;13.76;92.37;100539.23;1801527;79;21204;-78
2022/10/25 06:04:22;;;;;;;36.17;21.52;;;;;;;13.93;92.13;100533.01;1789442;79;21232;-78
2022/10/25 06:07:28;;;;;;;32.05;21.37;;;;;;;13.83;93.20;100536.03;1777600;80;21213;-78
2022/10/25 06:10:34;;;;;;;30.80;20.45;;;;;;;13.86;94.16;100548.03;1794068;79;21256;-78
2022/10/25 06:13:40;;;;;;;29.65;19.67;;;;;;;14.07;93.99;100543.13;1810534;79;21192;-78
2022/10/25 06:16:46;;;;;;;25.15;17.98;;;;;;;14.26;93.80;100550.75;1783690;79;21169;-78
2022/10/25 06:19:53;;;;;;;29.02;19.67;;;;;;;14.35;93.05;100550.11;1800913;79;21181;-78
2022/10/25 06:22:59;;;;;;;29.42;16.97;;;;;;;14.35;93.15;100549.22;1796561;79;21178;-78
2022/10/25 06:26:11;;;;;;;32.93;17.35;;;;;;;14.42;92.88;100551.02;1797853;79;21208;-78
2022/10/25 06:29:17;;;;;;;30.45;19.05;;;;;;;14.56;92.96;100552.04;1808283;79;21165;-78
2022/10/25 06:32:24;;;;;;;28.90;18.35;;;;;;;14.52;92.71;100547.97;1790400;79;21278;-78
2022/10/25 06:35:29;;;;;;;24.65;16.30;;;;;;;14.93;91.30;100556.41;1759684;79;21279;-78
2022/10/25 06:38:34;;;;;;;27.52;18.52;;;;;;;14.86;91.13;100555.48;1753647;81;21229;-78
2022/10/25 06:41:41;;;;;;;25.10;16.90;;;;;;;15.04;90.59;100549.50;1766404;81;21189;-78
2022/10/25 06:44:46;;;;;;;25.55;16.32;;;;;;;15.16;90.39;100552.57;1749931;81;21193;-79
2022/10/25 06:47:53;;;;;;;24.40;15.70;;;;;;;15.54;88.45;100547.00;1735409;81;21323;-79
2022/10/25 06:51:10;;;;;;;27.73;15.30;;;;;;;15.34;89.56;100544.66;1743274;82;21178;-78
2022/10/25 06:54:17;;;;;;;25.32;16.23;;;;;;;15.50;89.28;100544.31;1760034;81;21197;-79
2022/10/25 06:57:22;;;;;;;24.27;15.53;;;;;;;15.71;88.96;100539.78;1764651;81;21279;-79
2022/10/25 07:00:28;;;;;;;24.87;15.68;;;;;;;15.78;88.25;100536.02;1762394;81;21197;-79
2022/10/25 07:03:34;;;;;;;26.97;17.32;;;;;;;15.88;87.73;100532.88;1758718;81;21220;-79
2022/10/25 07:06:39;;;;;;;25.48;15.13;;;;;;;16.26;86.34;100532.37;1737248;82;21209;-79
2022/10/25 07:09:49;;;;;;;21.87;14.70;;;;;;;16.42;85.31;100534.77;1736366;82;21814;-79
2022/10/25 07:12:56;;;;;;;25.60;14.78;;;;;;;16.50;84.85;100533.17;1743604;81;21885;-78
2022/10/25 07:16:03;;;;;;;24.12;14.60;;;;;;;16.59;84.66;100533.83;1743603;81;21779;-78
2022/10/25 07:19:09;;;;;;;22.42;14.33;;;;;;;16.52;84.48;100528.30;1719968;81;21168;-78
2022/10/25 07:22:16;;;;;;;28.95;15.98;;;;;;;16.65;84.15;100534.89;1752603;81;21173;-78
2022/10/25 07:25:22;;;;;;;18.32;13.95;;;;;;;16.72;84.04;100532.50;1751154;81;21508;-79
2022/10/25 07:28:27;;;;;;;23.87;14.18;;;;;;;16.84;83.63;100529.44;1754177;81;21783;-78
2022/10/25 07:31:30;;;;;;;21.40;13.48;;;;;;;16.88;83.52;100524.31;1750546;81;21311;-78
2022/10/25 07:34:37;;;;;;;24.25;13.75;;;;;;;16.96;83.53;100521.34;1740845;81;21172;-78
2022/10/25 07:37:47;;;;;;;17.62;13.32;;;;;;;17.00;83.42;100521.24;1782664;79;21700;-79
2022/10/25 07:40:52;;;;;;;20.57;12.73;;;;;;;17.14;83.21;100513.80;1776446;79;21181;-79
2022/10/25 07:43:59;;;;;;;19.10;14.00;;;;;;;17.32;82.64;100517.28;1776217;79;21176;-79
2022/10/25 07:47:08;;;;;;;18.27;12.33;;;;;;;17.20;82.89;100511.55;1779198;79;21469;-79
2022/10/25 07:50:14;;;;;;;22.35;12.68;;;;;;;17.21;83.50;100509.62;1786723;79;21173;-79
2022/10/25 07:53:21;;;;;;;19.27;12.75;;;;;;;17.36;82.83;100508.84;1788733;79;21219;-78
2022/10/25 07:56:26;;;;;;;22.15;12.60;;;;;;;17.29;82.53;100499.73;1786719;79;21145;-77
2022/10/25 07:59:33;;;;;;;19.42;12.28;;;;;;;17.25;83.10;100503.45;1781122;79;21247;-78
2022/10/25 08:02:39;;;;;;;19.70;10.75;;;;;;;17.33;82.47;100505.15;1790935;78;21173;-78
2022/10/25 08:05:46;;;;;;;16.87;11.30;;;;;;;17.34;82.56;100503.54;1778973;79;21181;-79
2022/10/25 08:08:53;;;;;;;16.77;11.48;;;;;;;17.31;82.80;100507.27;1783853;79;21236;-77
2022/10/25 08:12:00;;;;;;;17.15;11.53;;;;;;;17.58;81.76;100508.91;1783352;79;21161;-78
2022/10/25 08:15:05;;;;;;;19.98;12.03;;;;;;;17.95;81.07;100505.08;1785088;79;21184;-79
2022/10/25 08:18:11;;;;;;;23.90;11.57;;;;;;;18.06;80.85;100504.38;1787666;79;22081;-79
2022/10/25 08:21:17;;;;;;;15.15;10.45;;;;;;;18.37;79.92;100510.48;1781431;79;21150;-79
2022/10/25 08:24:24;;;;;;;20.60;9.75;;;;;;;18.49;79.58;100507.87;1786739;79;21224;-79
2022/10/25 08:27:30;;;;;;;17.17;9.95;;;;;;;18.66;78.95;100513.70;1789685;79;21752;-79
2022/10/25 08:30:35;;;;;;;15.10;9.75;;;;;;;18.65;79.13;100504.55;1779606;79;21241;-79
2022/10/25 08:33:40;;;;;;;18.67;10.25;;;;;;;18.85;78.04;100510.49;1787465;78;21185;-79
2022/10/25 08:36:46;;;;;;;10.03;8.03;;;;;;;18.89;77.44;100504.81;1778678;79;21177;-80
2022/10/25 08:39:51;;;;;;;11.68;9.38;;;;;;;18.90;77.06;100500.42;1775533;80;21178;-79
2022/10/25 08:43:15;;;;;;;17.25;9.60;;;;;;;19.19;75.89;100498.56;1793563;80;21182;-79
2022/10/25 08:46:36;;;;;;;16.07;9.95;;;;;;;19.65;73.76;100503.66;1788673;80;21181;-80
2022/10/25 08:49:57;;;;;;;;;;;;;;;19.56;73.62;100501.69;1783956;80;21205;-79
2022/10/25 08:53:05;;;;;;;10.48;7.95;;;;;;;19.61;73.36;100497.71;1781966;80;20507;-79
2022/10/25 08:56:10;;;;;;;15.18;8.20;;;;;;;19.65;72.40;100503.11;1791709;80;21840;-80
2022/10/25 08:59:17;;;;;;;9.03;7.15;;;;;;;19.65;72.21;100491.16;1764504;80;21201;-79
2022/10/25 09:02:26;;;;;;;13.15;8.43;;;;;;;19.65;72.23;100485.07;1790785;80;21203;-79
2022/10/25 09:05:54;;;;;;;11.83;7.62;;;;;;;19.61;72.05;100486.61;1781417;79;21229;-79
2022/10/25 09:09:24;;;;;;;10.38;7.60;;;;;;;19.88;70.99;100482.97;1772736;80;21217;-79
2022/10/25 09:12:49;;;;;;;9.75;7.03;;;;;;;19.76;71.42;100476.53;1785004;80;21185;-79
2022/10/25 09:16:18;;;;;;;10.38;7.10;;;;;;;19.75;72.25;100477.59;1764101;80;21240;-78
2022/10/25 09:19:43;;;;;;;10.23;6.55;;;;;;;19.82;71.85;100476.14;1743203;82;21203;-80
2022/10/25 09:22:55;;;;;;;8.25;5.60;;;;;;;20.06;70.78;100473.77;1729890;82;21777;-78
2022/10/25 09:26:08;;;;;;;5.60;4.22;;;;;;;20.03;69.75;100470.61;1739948;82;21273;-78
2022/10/25 09:29:38;;;;;;;7.00;4.33;;;;;;;19.97;68.44;100466.85;1702586;82;21867;-78
2022/10/25 09:32:52;;;;;;;7.20;5.00;;;;;;;19.80;68.24;100458.84;1719253;82;21585;-78
2022/10/25 09:36:04;;;;;;;7.20;4.90;;;;;;;20.10;66.98;100462.52;1709334;82;21233;-79
2022/10/25 09:39:11;;;;;;;5.87;4.03;;;;;;;19.95;67.34;100463.98;1712502;83;21267;-79
2022/10/25 09:42:28;;;;;;;4.97;3.70;;;;;;;20.01;65.59;100474.17;1696799;83;22449;-79
2022/10/25 09:45:58;;;;;;;4.35;3.50;;;;;;;19.82;65.42;100467.81;1690458;85;21223;-79
2022/10/25 09:49:19;;;;;;;8.80;4.00;;;;;;;19.75;65.57;100469.80;1690352;85;21267;-79
2022/10/25 09:52:54;;;;;;;4.53;3.58;;;;;;;19.82;65.12;100469.20;1689167;85;21745;-79
2022/10/25 09:55:58;;;;;;;7.08;3.90;;;;;;;19.76;64.90;100459.01;1733456;82;21241;-78
2022/10/25 09:58:52;;;;;;;8.73;4.50;;;;;;;19.70;65.47;100458.56;1720354;82;21189;-78
2022/10/25 10:01:57;;;;;;;8.53;4.08;;;;;;;19.85;65.68;100459.00;1717086;82;21176;-79
2022/10/25 10:05:03;;;;;;;6.28;3.72;;;;;;;19.87;66.26;100454.92;1724096;81;21204;-79
2022/10/25 10:08:08;;;;;;;5.47;4.30;;;;;;;20.00;66.28;100454.45;1738267;82;21181;-79
2022/10/25 10:11:20;;;;;;;6.62;4.40;;;;;;;20.09;65.96;100449.72;1726332;82;21942;-79
2022/10/25 10:14:46;;;;;;;8.30;4.62;;;;;;;20.06;66.20;100437.68;1715154;82;21202;-79
2022/10/25 10:17:52;;;;;;;7.17;5.00;;;;;;;19.99;66.58;100437.45;1712766;82;21696;-79
2022/10/25 10:21:17;;;;;;;8.55;4.12;;;;;;;19.83;67.38;100440.35;1700380;83;21225;-80
2022/10/25 10:24:28;;;;;;;6.28;3.58;;;;;;;19.85;67.80;100438.17;1697820;83;21217;-79
2022/10/25 10:27:33;;;;;;;4.97;3.40;;;;;;;19.86;68.01;100435.73;1725372;82;21199;-79
2022/10/25 10:30:39;;;;;;;9.63;3.77;;;;;;;19.69;67.91;100432.74;1733347;82;21791;-79
2022/10/25 10:33:46;;;;;;;6.12;4.00;;;;;;;19.63;67.80;100422.59;1731126;82;21253;-80
2022/10/25 10:36:51;;;;;;;5.80;4.00;;;;;;;19.64;67.68;100420.95;1708882;82;21212;-80
2022/10/25 10:40:18;;;;;;;4.30;3.50;;;;;;;19.47;68.00;100419.00;1684746;83;21265;-80
2022/10/25 10:43:37;;;;;;;6.30;4.17;;;;;;;19.52;67.68;100419.16;1668250;85;21203;-80
2022/10/25 10:46:42;;;;;;;7.47;4.45;;;;;;;19.49;67.57;100415.48;1770931;81;21180;-80
2022/10/25 10:49:45;;;;;;;7.12;4.60;;;;;;;19.32;67.74;100412.47;1770630;80;21560;-80
2022/10/25 10:52:51;;;;;;;5.62;4.55;;;;;;;19.40;67.16;100409.39;1775868;80;21161;-80
2022/10/25 10:56:02;;;;;;;7.50;4.67;;;;;;;19.04;68.26;100409.67;1781546;80;21236;-80
2022/10/25 10:59:08;;;;;;;6.83;4.75;;;;;;;18.85;68.98;100409.34;1759415;80;22007;-80
2022/10/25 11:02:27;;;;;;;11.22;4.55;;;;;;;18.68;69.34;100406.30;1763241;80;21218;-80
2022/10/25 11:05:44;;;;;;;8.95;4.50;;;;;;;18.77;69.04;100409.63;1791583;80;21185;-80
2022/10/25 11:08:52;;;;;;;5.33;3.67;;;;;;;18.63;69.42;100408.87;1774984;80;21191;-80
2022/10/25 11:12:13;;;;;;;6.25;4.28;;;;;;;18.90;68.55;100407.58;1771615;80;21176;-80
2022/10/25 11:15:20;;;;;;;6.87;4.60;;;;;;;18.92;68.29;100410.14;1714023;83;21862;-80
2022/10/25 11:18:41;;;;;;;6.78;4.62;;;;;;;17.89;71.62;100402.20;1719990;82;21189;-79
2022/10/25 11:22:09;;;;;;;5.37;3.95;;;;;;;18.11;71.95;100404.94;1735392;82;21443;-79
2022/10/25 11:25:24;;;;;;;6.33;3.72;;;;;;;18.31;71.54;100410.32;1713083;83;21543;-79
2022/10/25 11:28:41;;;;;;;5.95;3.87;;;;;;;18.33;72.08;100405.94;1714389;83;21145;-78
2022/10/25 11:32:19;;;;;;;7.97;4.08;;;;;;;18.35;72.21;100403.27;1714065;82;21181;-79
2022/10/25 11:35:45;;;;;;;7.65;3.87;;;;;;;18.35;72.32;100403.27;1724123;82;21732;-79
2022/10/25 11:39:14;;;;;;;6.15;4.40;;;;;;;18.42;72.27;100400.97;1735133;82;21169;-81
2022/10/25 11:43:14;;;;;;;5.47;3.80;;;;;;;18.54;71.76;100400.56;1736278;82;21186;-79
2022/10/25 11:46:39;;;;;;;6.63;4.63;;;;;;;18.58;71.82;100402.66;1725943;82;21605;-79
2022/10/25 11:50:02;;;;;;;6.95;4.20;;;;;;;19.04;70.03;100399.97;1750946;81;21152;-79
2022/10/25 11:53:45;;;;;;;6.83;4.47;;;;;;;19.11;69.78;100398.53;1729445;82;21575;-79
2022/10/25 11:57:14;;;;;;;8.98;5.03;;;;;;;18.93;70.17;100395.20;1727897;82;21765;-79
2022/10/25 12:00:30;;;;;;;7.55;4.22;;;;;;;19.23;69.93;100395.83;1719271;82;21253;-79
2022/10/25 12:04:00;;;;;;;8.70;5.25;;;;;;;19.45;69.26;100392.05;1753430;81;21196;-79
2022/10/25 12:07:17;;;;;;;9.15;4.65;;;;;;;19.30;70.24;100383.59;1765484;81;21220;-79
2022/10/25 12:10:42;;;;;;;10.53;5.70;;;;;;;18.85;71.50;100394.10;1736481;81;21268;-79
2022/10/25 12:13:56;;;;;;;9.53;6.55;;;;;;;18.75;72.35;100387.70;1730054;82;21208;-81
2022/10/25 12:17:03;;;;;;;12.73;6.50;;;;;;;18.83;72.41;100383.80;1718846;82;21174;-79
2022/10/25 12:20:11;;;;;;;12.60;5.72;;;;;;;18.74;72.86;100378.23;1724241;81;21228;-79
2022/10/25 12:23:19;;;;;;;8.75;5.90;;;;;;;18.73;73.29;100375.17;1730089;82;21209;-80
2022/10/25 12:26:39;;;;;;;9.15;5.00;;;;;;;18.80;73.50;100378.16;1732043;82;21158;-80
2022/10/25 12:29:55;;;;;;;6.70;5.55;;;;;;;19.23;72.37;100358.39;1723718;82;21260;-80
2022/10/25 12:33:35;;;;;;;9.38;5.95;;;;;;;18.91;72.65;100358.53;1737666;81;21193;-80
2022/10/25 12:36:54;;;;;;;7.75;4.55;;;;;;;19.00;72.47;100359.92;1745499;81;21213;-79
2022/10/25 12:40:00;;;;;;;8.18;4.92;;;;;;;18.95;72.25;100352.84;1759122;81;21185;-79
2022/10/25 12:43:24;;;;;;;8.90;4.87;;;;;;;19.03;71.73;100360.86;1722033;82;21800;-79
2022/10/25 12:46:48;;;;;;;8.50;5.40;;;;;;;18.98;71.49;100355.17;1783344;79;21165;-80
2022/10/25 12:50:26;;;;;;;8.65;5.45;;;;;;;18.94;71.94;100356.70;1777154;79;21169;-80
2022/10/25 12:54:06;;;;;;;7.90;5.55;;;;;;;19.03;71.89;100352.55;1801290;79;21188;-80
2022/10/25 12:57:24;;;;;;;8.43;4.42;;;;;;;18.93;71.84;100359.17;1778667;79;21176;-80
2022/10/25 13:00:23;;;;;;;8.33;4.87;;;;;;;18.85;72.09;100362.23;1799299;79;21172;-79
2022/10/25 13:03:38;;;;;;;6.95;4.37;;;;;;;18.82;72.10;100358.52;1770555;81;21157;-80
2022/10/25 13:06:45;;;;;;;9.43;5.62;;;;;;;18.77;72.29;100359.24;1769937;81;21133;-80
2022/10/25 13:09:50;;;;;;;6.47;4.62;;;;;;;18.69;72.67;100362.84;1724530;82;21181;-80
2022/10/25 13:13:16;;;;;;;11.53;5.03;;;;;;;18.74;72.39;100363.00;1723272;82;21185;-80
2022/10/25 13:16:34;;;;;;;8.63;4.40;;;;;;;18.72;72.02;100352.13;1719526;83;21204;-78
2022/10/25 13:19:36;;;;;;;7.42;5.08;;;;;;;18.49;71.90;100350.00;1758249;81;21824;-79
2022/10/25 13:22:45;;;;;;;9.90;4.50;;;;;;;18.32;72.13;100346.09;1770936;80;21208;-79
2022/10/25 13:25:58;;;;;;;6.95;4.40;;;;;;;18.35;72.03;100354.81;1770816;81;21165;-79
2022/10/25 13:29:06;;;;;;;5.92;4.58;;;;;;;18.30;72.29;100352.37;1806153;78;21157;-79
2022/10/25 13:32:13;;;;;;;6.85;5.15;;;;;;;18.31;72.21;100349.95;1802542;79;21173;-79
2022/10/25 13:35:33;;;;;;;11.12;5.35;;;;;;;18.34;72.15;100350.86;1802124;79;21177;-79
2022/10/25 13:38:43;;;;;;;9.40;4.90;;;;;;;18.16;72.70;100346.14;1797232;79;21228;-79
2022/10/25 13:41:53;;;;;;;;;;;;;;;18.14;72.92;100343.57;1798585;79;21181;-78
2022/10/25 13:45:13;;;;;;;6.25;3.72;;;;;;;18.24;72.83;100339.45;1799925;79;20224;-81
2022/10/25 13:48:40;;;;;;;10.38;4.25;;;;;;;18.18;73.17;100338.98;1787080;79;21247;-80
2022/10/25 13:51:46;;;;;;;6.65;4.67;;;;;;;18.05;73.82;100335.23;1810011;79;21173;-81
2022/10/25 13:54:58;;;;;;;7.00;4.85;;;;;;;17.98;74.15;100332.22;1768261;79;21216;-81
2022/10/25 13:58:05;;;;;;;8.13;4.42;;;;;;;17.91;74.27;100338.33;1811504;79;21702;-81
2022/10/25 14:01:29;;;;;;;7.58;4.58;;;;;;;18.03;74.20;100326.32;1811636;79;21180;-81
2022/10/25 14:04:43;;;;;;;11.35;4.90;;;;;;;17.90;74.62;100326.95;1811010;79;21415;-81
2022/10/25 14:07:53;;;;;;;8.40;5.05;;;;;;;17.88;74.92;100319.73;1770841;79;21216;-80
2022/10/25 14:10:58;;;;;;;8.83;5.65;;;;;;;17.86;75.14;100322.39;1739503;82;21265;-80
2022/10/25 14:14:37;;;;;;;7.22;5.08;;;;;;;17.87;75.44;100323.55;1732454;82;21294;-81
2022/10/25 14:17:49;;;;;;;12.33;6.60;;;;;;;17.58;76.39;100328.29;1739456;82;21201;-81
2022/10/25 14:20:57;;;;;;;7.90;5.40;;;;;;;17.50;77.03;100330.80;1739468;82;21200;-80
2022/10/25 14:24:03;;;;;;;11.00;6.37;;;;;;;17.36;77.63;100330.52;1738112;82;21248;-80
2022/10/25 14:27:09;;;;;;;12.55;5.70;;;;;;;17.24;78.48;100324.85;1738697;82;21245;-80
2022/10/25 14:30:35;;;;;;;10.72;6.92;;;;;;;17.28;78.69;100330.80;1738492;82;21251;-80
2022/10/25 14:33:58;;;;;;;10.03;7.65;;;;;;;17.35;78.57;100331.06;1712973;83;21355;-78
2022/10/25 14:37:04;;;;;;;11.68;6.70;;;;;;;17.50;78.10;100326.65;1739528;82;21178;-78